Time;durP1;ratioP1;P1;durP2;ratioP2;P2;SDS_P1;SDS_P2;PMS_P1;PMS_P2;Temp;Humidity;BMP_temperature;BMP_pressure;BME280_temperature;BME280_humidity;BME280_pressure;Samples;Min_cycle;Max_cycle;Signal;HPM_P1;HPM_P2
2021/05/30 00:01:26;;;;;;;3.28;2.20;;;15.20;52.00;;;;;;5007224;28;20072;-69
2021/05/30 00:03:53;;;;;;;5.70;2.20;;;15.20;52.20;;;;;;5009448;28;20042;-70
2021/05/30 00:06:20;;;;;;;2.55;2.20;;;15.20;52.20;;;;;;4998907;28;20186;-69
2021/05/30 00:08:47;;;;;;;4.25;2.35;;;15.30;52.40;;;;;;5024054;28;20082;-69
2021/05/30 00:11:15;;;;;;;2.72;2.00;;;15.20;52.50;;;;;;5016586;28;20514;-70
2021/05/30 00:13:42;;;;;;;3.38;2.42;;;15.10;52.70;;;;;;5005243;28;20479;-70
2021/05/30 00:16:09;;;;;;;2.95;2.25;;;15.00;53.00;;;;;;5007071;28;20124;-70
2021/05/30 00:18:36;;;;;;;3.72;2.35;;;14.90;53.40;;;;;;5010310;28;20046;-69
2021/05/30 00:21:03;;;;;;;3.88;2.15;;;14.80;53.60;;;;;;5008219;28;20081;-70
2021/05/30 00:23:29;;;;;;;7.93;2.45;;;14.80;54.10;;;;;;5009879;28;20637;-70
2021/05/30 00:25:56;;;;;;;3.38;2.25;;;14.90;54.50;;;;;;5010690;28;20044;-70
2021/05/30 00:28:23;;;;;;;3.55;2.33;;;14.90;54.80;;;;;;5005068;28;20065;-70
2021/05/30 00:30:50;;;;;;;5.25;2.33;;;15.00;54.50;;;;;;5009447;28;20132;-70
2021/05/30 00:33:17;;;;;;;3.80;2.40;;;14.90;54.30;;;;;;5009488;28;20062;-69
2021/05/30 00:35:44;;;;;;;8.25;2.65;;;15.00;54.70;;;;;;5007270;28;20061;-69
2021/05/30 00:38:11;;;;;;;5.35;2.70;;;14.90;54.80;;;;;;4999960;28;20239;-69
2021/05/30 00:40:40;;;;;;;7.88;2.90;;;15.00;54.90;;;;;;5009660;28;20081;-68
2021/05/30 00:43:08;;;;;;;4.00;2.63;;;14.90;55.00;;;;;;5008733;28;20077;-68
2021/05/30 00:45:35;;;;;;;6.10;3.30;;;14.90;55.00;;;;;;5006676;28;20524;-69
2021/05/30 00:48:02;;;;;;;4.20;2.47;;;15.00;55.00;;;;;;5005792;28;20089;-70
2021/05/30 00:50:29;;;;;;;5.05;3.00;;;14.90;55.40;;;;;;5007701;28;20074;-69
2021/05/30 00:52:57;;;;;;;3.58;2.50;;;14.80;55.60;;;;;;5010426;28;20100;-69
2021/05/30 00:55:27;;;;;;;5.60;3.00;;;14.70;55.80;;;;;;5004386;28;20138;-70
2021/05/30 00:57:54;;;;;;;7.20;3.58;;;14.70;55.70;;;;;;5007276;28;20172;-69
2021/05/30 01:00:21;;;;;;;4.30;2.63;;;14.80;55.50;;;;;;5008876;28;20145;-69
2021/05/30 01:02:48;;;;;;;3.35;2.60;;;14.70;55.80;;;;;;5011897;28;20517;-70
2021/05/30 01:05:15;;;;;;;3.58;2.50;;;14.50;56.50;;;;;;5006132;28;20133;-69
2021/05/30 01:07:45;;;;;;;3.75;3.10;;;14.50;56.80;;;;;;5004210;28;20444;-70
2021/05/30 01:10:26;;;;;;;5.55;2.83;;;14.50;57.10;;;;;;5006566;28;20077;-70
2021/05/30 01:12:53;;;;;;;5.72;3.00;;;14.30;57.60;;;;;;5009396;28;20640;-69
2021/05/30 01:15:20;;;;;;;5.47;3.03;;;14.30;57.90;;;;;;5003583;28;20056;-69
2021/05/30 01:17:48;;;;;;;4.15;2.95;;;14.30;58.50;;;;;;5008774;28;20121;-69
2021/05/30 01:20:17;;;;;;;5.90;3.08;;;14.30;58.50;;;;;;4997866;28;20050;-69
2021/05/30 01:22:46;;;;;;;6.35;3.03;;;14.40;58.70;;;;;;5009316;28;20089;-69
2021/05/30 01:25:15;;;;;;;5.90;2.97;;;14.50;58.20;;;;;;5008992;28;20050;-69
2021/05/30 01:27:43;;;;;;;7.57;3.20;;;14.50;59.00;;;;;;5003076;28;20185;-69
2021/05/30 01:30:11;;;;;;;6.28;3.40;;;14.40;59.00;;;;;;5006546;28;20064;-69
2021/05/30 01:32:43;;;;;;;4.28;3.33;;;14.40;59.20;;;;;;5004389;28;20062;-69
2021/05/30 01:35:10;;;;;;;4.95;3.75;;;14.30;59.10;;;;;;5006030;28;20100;-69
2021/05/30 01:37:38;;;;;;;6.15;3.38;;;14.20;59.60;;;;;;5010638;28;20117;-69
2021/05/30 01:40:06;;;;;;;10.02;2.92;;;14.30;59.70;;;;;;5009458;28;20190;-69
2021/05/30 01:42:34;;;;;;;7.85;3.85;;;14.20;59.60;;;;;;5006684;28;20066;-69
2021/05/30 01:45:01;;;;;;;7.57;4.00;;;14.30;59.70;;;;;;5008436;28;20072;-69
2021/05/30 01:47:28;;;;;;;4.80;3.70;;;14.30;59.60;;;;;;5009305;28;20078;-69
2021/05/30 01:49:55;;;;;;;6.25;4.18;;;14.20;59.70;;;;;;5005171;28;20056;-69
2021/05/30 01:52:21;;;;;;;5.13;3.53;;;14.10;60.10;;;;;;5007966;28;20196;-69
2021/05/30 01:54:50;;;;;;;5.95;4.07;;;13.90;60.70;;;;;;5008590;28;20054;-68
2021/05/30 01:57:19;;;;;;;6.47;3.50;;;13.90;60.90;;;;;;5008671;28;20080;-69
2021/05/30 01:59:46;;;;;;;7.72;3.80;;;13.70;61.60;;;;;;5006051;28;20096;-70
2021/05/30 02:02:13;;;;;;;6.60;4.30;;;13.90;62.10;;;;;;5006025;28;20080;-69
2021/05/30 02:04:44;;;;;;;7.00;4.18;;;13.80;61.90;;;;;;4996716;28;20056;-70
2021/05/30 02:07:12;;;;;;;7.95;4.68;;;13.80;61.90;;;;;;5012354;28;20125;-70
2021/05/30 02:09:38;;;;;;;6.72;4.32;;;13.80;62.60;;;;;;5007212;28;20141;-69
2021/05/30 02:12:06;;;;;;;6.95;4.68;;;13.70;63.50;;;;;;5007122;28;20057;-69
2021/05/30 02:14:34;;;;;;;5.70;4.30;;;13.60;63.40;;;;;;5008329;28;20057;-69
2021/05/30 02:17:02;;;;;;;9.45;4.88;;;13.70;63.70;;;;;;5006958;28;20398;-70
2021/05/30 02:19:29;;;;;;;6.57;4.63;;;13.70;64.10;;;;;;4999615;28;20699;-70
2021/05/30 02:21:56;;;;;;;6.95;4.40;;;13.60;63.40;;;;;;5003941;28;20049;-69
2021/05/30 02:24:23;;;;;;;8.63;4.40;;;13.40;64.70;;;;;;5004655;28;20049;-68
2021/05/30 02:26:50;;;;;;;8.55;4.70;;;13.50;66.00;;;;;;5001366;28;21114;-69
2021/05/30 02:29:36;;;;;;;8.05;4.55;;;13.60;64.70;;;;;;5007027;28;20528;-69
2021/05/30 02:32:04;;;;;;;7.32;4.53;;;13.60;64.50;;;;;;5008249;28;20108;-69
2021/05/30 02:34:31;;;;;;;7.00;3.95;;;13.50;65.40;;;;;;4995667;28;20073;-69
2021/05/30 02:36:59;;;;;;;10.95;4.75;;;13.40;65.80;;;;;;5007694;28;20076;-69
2021/05/30 02:39:26;;;;;;;9.25;4.95;;;13.40;66.10;;;;;;5006118;28;20455;-69
2021/05/30 02:41:53;;;;;;;6.35;4.40;;;13.40;66.50;;;;;;5005275;28;20096;-69
2021/05/30 02:44:20;;;;;;;8.90;5.10;;;13.30;65.80;;;;;;5005786;28;20090;-69
2021/05/30 02:46:46;;;;;;;6.85;4.22;;;13.30;67.30;;;;;;5009334;28;20551;-70
2021/05/30 02:49:14;;;;;;;7.18;4.88;;;13.20;67.50;;;;;;5002217;28;20045;-69
2021/05/30 02:51:41;;;;;;;7.60;5.28;;;13.10;67.90;;;;;;5003980;28;20062;-70
2021/05/30 02:54:08;;;;;;;12.05;4.75;;;13.10;68.00;;;;;;5001587;28;20074;-70
2021/05/30 02:56:35;;;;;;;10.10;5.40;;;13.20;67.90;;;;;;5004942;28;20125;-69
2021/05/30 02:59:02;;;;;;;6.43;4.82;;;13.30;68.20;;;;;;5002414;28;20050;-69
2021/05/30 03:01:29;;;;;;;9.00;5.45;;;13.20;68.10;;;;;;5007191;28;20229;-68
2021/05/30 03:03:56;;;;;;;7.18;5.07;;;13.00;69.00;;;;;;5000327;28;20045;-68
2021/05/30 03:06:26;;;;;;;9.70;5.38;;;13.10;68.70;;;;;;5008731;28;20479;-69
2021/05/30 03:08:53;;;;;;;10.02;5.68;;;13.10;68.70;;;;;;5008721;28;20157;-69
2021/05/30 03:11:21;;;;;;;8.77;5.38;;;12.90;69.30;;;;;;5011550;28;20077;-69
2021/05/30 03:13:51;;;;;;;7.25;4.93;;;13.00;70.30;;;;;;5007369;28;20543;-69
2021/05/30 03:16:19;;;;;;;8.23;5.10;;;12.90;69.00;;;;;;5011342;28;21475;-70
2021/05/30 03:18:46;;;;;;;7.75;5.38;;;13.00;70.60;;;;;;5008467;28;20046;-69
2021/05/30 03:21:15;;;;;;;11.15;5.97;;;13.10;69.40;;;;;;5015254;28;20456;-70
2021/05/30 03:23:42;;;;;;;8.52;5.18;;;13.00;70.10;;;;;;5010312;28;20034;-68
2021/05/30 03:26:09;;;;;;;9.77;6.25;;;13.20;69.50;;;;;;5009496;28;20464;-69
2021/05/30 03:28:37;;;;;;;10.80;6.13;;;13.00;69.60;;;;;;5010241;28;20077;-69
2021/05/30 03:31:04;;;;;;;10.05;5.85;;;12.80;70.50;;;;;;5012127;28;20069;-68
2021/05/30 03:33:31;;;;;;;9.63;6.15;;;12.80;70.60;;;;;;5008181;28;20132;-68
2021/05/30 03:36:01;;;;;;;9.60;5.63;;;12.70;71.60;;;;;;5010440;28;20133;-68
2021/05/30 03:38:30;;;;;;;9.82;5.95;;;12.90;71.20;;;;;;5011771;28;20052;-69
2021/05/30 03:41:05;;;;;;;8.57;5.32;;;13.10;70.20;;;;;;5009848;28;20246;-71
2021/05/30 03:43:34;;;;;;;11.43;6.13;;;13.10;70.40;;;;;;4999915;28;20042;-72
2021/05/30 03:46:02;;;;;;;8.88;5.35;;;12.90;70.40;;;;;;5007296;28;20049;-72
2021/05/30 03:48:28;;;;;;;10.32;5.82;;;12.70;71.20;;;;;;5020524;28;20056;-72
2021/05/30 03:50:55;;;;;;;11.98;5.60;;;12.70;71.90;;;;;;5011172;28;20050;-72
2021/05/30 03:53:22;;;;;;;9.60;6.22;;;12.50;73.30;;;;;;5010088;28;20148;-72
2021/05/30 03:55:49;;;;;;;9.32;5.93;;;12.70;73.40;;;;;;5008874;28;20168;-72
2021/05/30 03:58:17;;;;;;;9.60;5.82;;;13.00;72.30;;;;;;5008532;28;20128;-72
2021/05/30 04:00:44;;;;;;;9.43;5.53;;;12.80;72.30;;;;;;5006690;28;20121;-72
2021/05/30 04:03:11;;;;;;;10.30;5.85;;;12.80;72.20;;;;;;5009092;28;20188;-72
2021/05/30 04:05:38;;;;;;;9.93;6.03;;;12.90;71.90;;;;;;5010701;28;20505;-72
2021/05/30 04:08:05;;;;;;;11.05;6.20;;;12.80;71.90;;;;;;5008723;28;20050;-72
2021/05/30 04:10:32;;;;;;;13.65;6.00;;;12.80;72.20;;;;;;5005524;28;20151;-72
2021/05/30 04:12:59;;;;;;;9.93;6.28;;;12.80;73.60;;;;;;5005816;28;20084;-72
2021/05/30 04:15:25;;;;;;;8.60;5.78;;;12.70;72.90;;;;;;5025442;28;20488;-72
2021/05/30 04:17:52;;;;;;;11.50;6.40;;;12.80;72.90;;;;;;5007000;28;20096;-72
2021/05/30 04:20:21;;;;;;;12.45;6.15;;;12.70;73.50;;;;;;5007199;28;20046;-72
2021/05/30 04:22:48;;;;;;;11.32;5.85;;;12.80;72.70;;;;;;5009018;28;20065;-72
2021/05/30 04:25:16;;;;;;;9.68;5.93;;;12.80;72.70;;;;;;5007840;28;20069;-72
2021/05/30 04:27:45;;;;;;;9.73;6.25;;;12.60;73.00;;;;;;5000877;28;20460;-72
2021/05/30 04:30:14;;;;;;;9.88;6.15;;;12.70;73.10;;;;;;5010251;28;20141;-72
2021/05/30 04:32:41;;;;;;;8.57;5.97;;;12.50;74.00;;;;;;5004928;28;20480;-73
2021/05/30 04:35:09;;;;;;;9.65;6.22;;;12.70;73.50;;;;;;5032800;28;20482;-73
2021/05/30 04:37:36;;;;;;;8.63;5.68;;;12.80;73.00;;;;;;5009044;28;20078;-74
2021/05/30 04:40:04;;;;;;;9.00;6.10;;;12.90;73.10;;;;;;5007878;28;20158;-74
2021/05/30 04:42:32;;;;;;;14.15;5.72;;;12.90;72.80;;;;;;5008025;28;20085;-74
2021/05/30 04:44:59;;;;;;;11.60;5.82;;;13.00;72.40;;;;;;5007716;28;20077;-74
2021/05/30 04:47:26;;;;;;;10.70;5.80;;;12.90;73.00;;;;;;5007124;28;20144;-73
2021/05/30 04:49:52;;;;;;;9.35;5.85;;;12.90;73.30;;;;;;5007829;28;20720;-73
2021/05/30 04:52:20;;;;;;;10.70;5.90;;;13.50;71.60;;;;;;5007154;28;20132;-73
2021/05/30 04:54:46;;;;;;;9.85;5.82;;;13.80;70.60;;;;;;5012379;28;20078;-73
2021/05/30 04:57:13;;;;;;;11.07;6.38;;;14.30;68.00;;;;;;5008877;28;20461;-72
2021/05/30 04:59:40;;;;;;;9.75;6.22;;;14.60;66.90;;;;;;5007734;28;20048;-73
2021/05/30 05:02:07;;;;;;;16.25;5.95;;;14.70;65.60;;;;;;5007207;28;20089;-73
2021/05/30 05:04:33;;;;;;;10.13;5.65;;;15.00;64.50;;;;;;5006544;28;20469;-74
2021/05/30 05:07:00;;;;;;;12.93;6.93;;;15.30;63.40;;;;;;5011938;28;20485;-73
2021/05/30 05:09:27;;;;;;;11.25;6.65;;;15.60;62.30;;;;;;4991181;28;20422;-72
2021/05/30 05:11:54;;;;;;;9.13;5.63;;;16.10;61.10;;;;;;5003258;28;20419;-72
2021/05/30 05:14:21;;;;;;;9.20;5.85;;;16.50;60.20;;;;;;5006856;28;20050;-72
2021/05/30 05:16:47;;;;;;;9.02;5.57;;;17.00;59.60;;;;;;5007131;28;20077;-72
2021/05/30 05:19:14;;;;;;;8.52;5.47;;;17.50;57.80;;;;;;5007142;28;20077;-72
2021/05/30 05:21:41;;;;;;;11.95;5.93;;;18.10;56.80;;;;;;5017581;28;20045;-72
2021/05/30 05:24:08;;;;;;;6.85;5.30;;;18.60;55.60;;;;;;5008015;28;20077;-72
2021/05/30 05:26:35;;;;;;;8.60;5.32;;;19.00;54.60;;;;;;5006788;28;20038;-72
2021/05/30 05:29:02;;;;;;;9.07;5.28;;;18.30;55.70;;;;;;5005871;28;20046;-72
2021/05/30 05:31:29;;;;;;;8.45;5.30;;;17.80;56.40;;;;;;5005082;28;20089;-73
2021/05/30 05:33:56;;;;;;;8.43;5.75;;;19.20;55.70;;;;;;4999969;28;20517;-72
2021/05/30 05:36:23;;;;;;;10.57;5.60;;;17.10;56.50;;;;;;5009660;28;20441;-73
2021/05/30 05:38:51;;;;;;;11.82;5.70;;;16.20;59.10;;;;;;5003900;28;20520;-74
2021/05/30 05:41:18;;;;;;;11.52;5.70;;;15.30;60.50;;;;;;5008308;28;20108;-73
2021/05/30 05:43:45;;;;;;;8.55;5.53;;;14.80;62.90;;;;;;5006593;28;20046;-73
2021/05/30 05:46:12;;;;;;;11.48;5.75;;;14.40;64.50;;;;;;5006547;28;20753;-73
2021/05/30 05:48:39;;;;;;;10.93;5.82;;;14.40;65.00;;;;;;5006668;28;20053;-73
2021/05/30 05:51:06;;;;;;;11.38;5.45;;;14.50;65.60;;;;;;5008831;28;20053;-73
2021/05/30 05:53:33;;;;;;;9.27;5.80;;;14.60;66.00;;;;;;5007854;28;20166;-69
2021/05/30 05:56:00;;;;;;;8.80;5.25;;;14.70;64.90;;;;;;5011328;28;20144;-71
2021/05/30 05:58:27;;;;;;;9.70;5.90;;;14.60;64.70;;;;;;5008413;28;20049;-69
2021/05/30 06:00:54;;;;;;;7.90;5.10;;;14.60;65.00;;;;;;5007310;28;20048;-69
2021/05/30 06:03:21;;;;;;;10.55;5.75;;;14.50;65.50;;;;;;5005876;28;20141;-69
2021/05/30 06:05:48;;;;;;;8.00;4.95;;;14.40;65.60;;;;;;5006700;28;20085;-68
2021/05/30 06:08:14;;;;;;;6.15;4.45;;;14.70;64.90;;;;;;5008687;28;20084;-69
2021/05/30 06:10:42;;;;;;;7.80;4.68;;;15.50;63.20;;;;;;5007231;28;20050;-69
2021/05/30 06:13:10;;;;;;;9.38;4.55;;;15.80;61.40;;;;;;5006894;28;20081;-69
2021/05/30 06:15:41;;;;;;;7.25;4.60;;;16.00;61.60;;;;;;5003569;28;20104;-69
2021/05/30 06:18:13;;;;;;;6.72;4.38;;;15.50;61.80;;;;;;5007415;28;20096;-69
2021/05/30 06:20:41;;;;;;;6.80;4.72;;;15.50;61.70;;;;;;5000136;28;20037;-68
2021/05/30 06:23:09;;;;;;;7.22;4.53;;;15.50;62.10;;;;;;5007811;28;20097;-68
2021/05/30 06:25:37;;;;;;;7.38;4.55;;;15.20;62.00;;;;;;5006394;28;20048;-69
2021/05/30 06:28:04;;;;;;;6.40;4.38;;;15.20;62.80;;;;;;5005673;28;20132;-69
2021/05/30 06:30:35;;;;;;;8.70;5.03;;;15.20;63.00;;;;;;5001119;28;20157;-70
2021/05/30 06:33:02;;;;;;;;;;;15.10;63.00;;;;;;5007667;28;20062;-69
2021/05/30 06:35:30;;;;;;;7.40;4.60;;;15.40;63.90;;;;;;5001407;28;20318;-69
2021/05/30 06:37:58;;;;;;;7.38;4.03;;;16.30;60.70;;;;;;5004948;28;20046;-70
2021/05/30 06:40:25;;;;;;;6.85;4.25;;;17.10;58.60;;;;;;5004211;28;20132;-70
2021/05/30 06:42:52;;;;;;;6.13;4.07;;;17.60;57.70;;;;;;5001915;28;20561;-69
2021/05/30 06:45:18;;;;;;;6.53;3.90;;;18.10;56.00;;;;;;5011660;28;20073;-69
2021/05/30 06:47:46;;;;;;;6.07;4.40;;;18.90;53.90;;;;;;5008826;28;20100;-70
2021/05/30 06:50:13;;;;;;;10.10;4.15;;;17.20;56.00;;;;;;4995437;28;20373;-70
2021/05/30 06:52:40;;;;;;;8.95;4.40;;;16.70;57.70;;;;;;5010928;28;20171;-70
2021/05/30 06:55:07;;;;;;;8.73;4.25;;;18.10;56.50;;;;;;5008809;28;20129;-70
2021/05/30 06:57:34;;;;;;;7.15;4.22;;;17.30;56.50;;;;;;5013799;28;20702;-70
2021/05/30 07:00:03;;;;;;;6.30;4.28;;;16.70;57.70;;;;;;5040650;28;20128;-69
2021/05/30 07:02:30;;;;;;;7.43;4.18;;;16.20;58.40;;;;;;5013594;28;20073;-69
2021/05/30 07:04:57;;;;;;;6.85;4.20;;;16.20;58.90;;;;;;5020777;28;20042;-69
2021/05/30 07:07:23;;;;;;;8.15;4.38;;;16.20;59.60;;;;;;5030500;28;20128;-70
2021/05/30 07:09:50;;;;;;;8.15;5.40;;;16.10;59.80;;;;;;5003998;28;20481;-70
2021/05/30 07:12:17;;;;;;;7.75;4.80;;;16.20;60.10;;;;;;5007410;28;20129;-69
2021/05/30 07:14:44;;;;;;;8.32;5.63;;;16.20;60.20;;;;;;5009609;28;20125;-70
2021/05/30 07:17:11;;;;;;;7.93;5.10;;;16.00;61.30;;;;;;5012015;28;20204;-71
2021/05/30 07:19:39;;;;;;;10.38;6.13;;;16.00;62.10;;;;;;5009115;28;20144;-70
2021/05/30 07:22:06;;;;;;;9.45;5.45;;;16.20;61.80;;;;;;5005812;28;20469;-70
2021/05/30 07:24:33;;;;;;;9.52;5.85;;;16.20;62.40;;;;;;5025919;28;20053;-70
2021/05/30 07:27:00;;;;;;;8.55;5.05;;;16.70;61.60;;;;;;5010654;28;20103;-70
2021/05/30 07:29:27;;;;;;;6.05;4.47;;;18.60;58.50;;;;;;5009397;28;20069;-69
2021/05/30 07:31:53;;;;;;;7.82;4.13;;;18.70;55.70;;;;;;5008966;28;20054;-69
2021/05/30 07:34:20;;;;;;;6.65;4.57;;;18.20;56.10;;;;;;5001058;28;20050;-69
2021/05/30 07:36:47;;;;;;;8.02;4.90;;;17.70;57.00;;;;;;5024161;28;20057;-69
2021/05/30 07:39:14;;;;;;;5.68;4.28;;;17.20;57.90;;;;;;5007908;28;20437;-70
2021/05/30 07:41:45;;;;;;;6.55;4.32;;;17.00;58.70;;;;;;5008061;28;20046;-69
2021/05/30 07:44:12;;;;;;;6.93;4.40;;;16.80;58.50;;;;;;5004747;28;20101;-69
2021/05/30 07:46:39;;;;;;;6.38;4.57;;;16.90;58.50;;;;;;5009117;28;20095;-69
2021/05/30 07:49:06;;;;;;;9.98;5.05;;;17.00;58.70;;;;;;5003171;28;20473;-69
2021/05/30 07:51:33;;;;;;;9.48;4.72;;;17.00;58.80;;;;;;5009881;28;20428;-68
2021/05/30 07:54:00;;;;;;;8.32;4.97;;;17.00;58.80;;;;;;5008767;28;20050;-69
2021/05/30 07:56:27;;;;;;;6.78;4.43;;;16.90;58.80;;;;;;5022839;28;20116;-69
2021/05/30 07:58:55;;;;;;;10.43;4.30;;;17.00;58.60;;;;;;5024834;28;20132;-69
2021/05/30 08:01:22;;;;;;;7.65;5.38;;;17.10;58.30;;;;;;5007747;28;20088;-69
2021/05/30 08:03:49;;;;;;;11.32;5.43;;;16.90;60.00;;;;;;5000764;28;20437;-69
2021/05/30 08:06:16;;;;;;;8.75;5.88;;;16.60;61.60;;;;;;5007297;28;20105;-69
2021/05/30 08:08:42;;;;;;;13.38;5.97;;;16.60;61.40;;;;;;5010086;28;20093;-70
2021/05/30 08:11:09;;;;;;;9.70;6.40;;;16.80;61.30;;;;;;5017089;28;20084;-69
2021/05/30 08:13:38;;;;;;;8.63;6.28;;;16.90;60.90;;;;;;5010524;28;20156;-69
2021/05/30 08:16:05;;;;;;;10.65;5.10;;;16.80;61.20;;;;;;5025592;28;20167;-69
2021/05/30 08:18:32;;;;;;;10.40;5.03;;;16.90;61.00;;;;;;5006906;28;20092;-69
2021/05/30 08:21:00;;;;;;;7.55;5.40;;;17.00;60.10;;;;;;5010210;28;20077;-69
2021/05/30 08:23:27;;;;;;;8.60;5.05;;;17.00;59.50;;;;;;5008706;28;20042;-68
2021/05/30 08:25:53;;;;;;;7.63;4.88;;;17.10;58.90;;;;;;5005827;28;20121;-69
2021/05/30 08:28:20;;;;;;;7.28;4.57;;;17.20;58.10;;;;;;5008006;28;20144;-69
2021/05/30 08:30:47;;;;;;;7.72;4.25;;;17.20;57.30;;;;;;5010148;28;20045;-68
2021/05/30 08:33:14;;;;;;;6.45;4.05;;;17.30;57.40;;;;;;5007910;28;20054;-69
2021/05/30 08:35:41;;;;;;;8.05;4.10;;;17.40;57.50;;;;;;5020166;28;20527;-69
2021/05/30 08:38:20;;;;;;;6.22;4.50;;;17.50;57.30;;;;;;5022816;28;20050;-69
2021/05/30 08:40:57;;;;;;;7.18;3.63;;;17.40;57.00;;;;;;5001837;28;20046;-69
2021/05/30 08:43:24;;;;;;;5.53;3.55;;;17.40;54.90;;;;;;5009005;28;20033;-69
2021/05/30 08:45:51;;;;;;;5.57;3.83;;;17.60;53.20;;;;;;5008085;28;20042;-69
2021/05/30 08:48:18;;;;;;;7.85;3.40;;;17.70;55.70;;;;;;5006763;28;20065;-70
2021/05/30 08:51:01;;;;;;;4.60;2.70;;;17.80;55.10;;;;;;5008664;28;20073;-70
2021/05/30 08:53:37;;;;;;;6.57;2.80;;;17.90;50.70;;;;;;5005052;28;20661;-69
2021/05/30 08:56:05;;;;;;;4.35;2.88;;;17.90;51.10;;;;;;5005706;28;20476;-70
2021/05/30 08:58:37;;;;;;;4.78;3.00;;;17.90;50.60;;;;;;5005927;28;20136;-70
2021/05/30 09:01:13;;;;;;;3.63;2.60;;;18.00;50.40;;;;;;5007643;28;20089;-68
2021/05/30 09:04:06;;;;;;;4.25;2.13;;;18.10;49.70;;;;;;5006718;28;20039;-72
2021/05/30 09:06:34;;;;;;;4.50;2.90;;;18.20;48.10;;;;;;5004641;28;20271;-70
2021/05/30 09:09:04;;;;;;;5.60;2.30;;;18.40;49.30;;;;;;5005263;28;20060;-69
2021/05/30 09:11:45;;;;;;;4.88;2.22;;;18.50;47.60;;;;;;5006433;28;20234;-70
2021/05/30 09:14:27;;;;;;;3.35;2.38;;;18.40;45.50;;;;;;5003052;28;20124;-71
2021/05/30 09:17:00;;;;;;;4.15;2.22;;;18.50;45.50;;;;;;5004411;28;20641;-69
2021/05/30 09:19:33;;;;;;;5.30;2.20;;;18.40;46.20;;;;;;5007128;28;20129;-70
2021/05/30 09:22:15;;;;;;;4.55;2.60;;;18.50;45.10;;;;;;5008262;28;20073;-71
2021/05/30 09:24:59;;;;;;;3.78;2.25;;;18.60;43.90;;;;;;5002935;28;20497;-72
2021/05/30 09:27:34;;;;;;;3.80;1.90;;;18.80;43.80;;;;;;5003677;28;20046;-72
2021/05/30 09:30:36;;;;;;;4.85;2.15;;;19.10;42.00;;;;;;5005831;28;20066;-72
2021/05/30 09:33:09;;;;;;;6.30;2.30;;;19.10;42.10;;;;;;4999550;28;20152;-73
2021/05/30 09:35:46;;;;;;;3.42;1.98;;;18.90;42.50;;;;;;4997235;28;20081;-70
2021/05/30 09:38:17;;;;;;;3.75;1.83;;;18.90;43.10;;;;;;4998620;28;20053;-73
2021/05/30 09:40:52;;;;;;;5.07;2.20;;;19.10;42.10;;;;;;5021072;28;20139;-74
2021/05/30 09:43:25;;;;;;;3.72;1.65;;;19.00;42.00;;;;;;4999007;28;20066;-73
2021/05/30 09:46:04;;;;;;;4.35;2.08;;;19.00;41.80;;;;;;5000053;28;20149;-75
2021/05/30 09:48:40;;;;;;;2.65;1.98;;;19.00;41.10;;;;;;4998054;28;20046;-76
2021/05/30 09:51:34;;;;;;;7.05;2.00;;;19.20;41.10;;;;;;5003912;28;20090;-73
2021/05/30 09:54:19;;;;;;;2.78;1.70;;;19.20;40.40;;;;;;5021384;28;20057;-73
2021/05/30 09:56:52;;;;;;;4.63;1.90;;;19.00;40.80;;;;;;5023290;28;20077;-74
2021/05/30 09:59:26;;;;;;;3.05;1.90;;;19.00;41.20;;;;;;5021729;28;20493;-73
2021/05/30 10:02:02;;;;;;;3.00;1.90;;;19.10;41.30;;;;;;5003120;28;20078;-73
2021/05/30 10:04:31;;;;;;;1.70;1.52;;;19.40;41.40;;;;;;4998132;28;20096;-73
2021/05/30 10:07:01;;;;;;;2.40;1.73;;;19.50;41.20;;;;;;5021264;28;20177;-73
2021/05/30 10:09:30;;;;;;;1.88;1.55;;;19.60;41.20;;;;;;5001545;28;20057;-73
2021/05/30 10:11:58;;;;;;;2.58;1.98;;;19.60;41.00;;;;;;4995916;28;20149;-74
2021/05/30 10:14:26;;;;;;;4.38;2.20;;;19.80;40.90;;;;;;4999433;28;20050;-74
2021/05/30 10:16:54;;;;;;;2.60;1.67;;;19.80;40.50;;;;;;5000309;28;20058;-74
2021/05/30 10:19:36;;;;;;;3.13;2.08;;;19.90;40.40;;;;;;4998256;28;20050;-74
2021/05/30 10:22:03;;;;;;;3.13;2.00;;;19.80;39.90;;;;;;5021970;28;20160;-74
2021/05/30 10:24:31;;;;;;;2.47;1.60;;;19.60;40.70;;;;;;5000663;28;20198;-74
2021/05/30 10:27:15;;;;;;;2.00;1.75;;;19.70;40.70;;;;;;5001248;28;20150;-74
2021/05/30 10:30:11;;;;;;;2.60;1.88;;;20.00;40.40;;;;;;5002446;28;20067;-75
2021/05/30 10:32:41;;;;;;;3.45;1.80;;;20.00;39.90;;;;;;5000930;28;20085;-73
2021/05/30 10:35:20;;;;;;;4.25;1.73;;;20.10;40.10;;;;;;4994929;28;20084;-74
2021/05/30 10:37:49;;;;;;;4.38;1.80;;;20.10;40.00;;;;;;5000786;28;20390;-74
2021/05/30 10:40:22;;;;;;;3.78;1.83;;;20.10;40.50;;;;;;4998313;28;20132;-73
2021/05/30 10:43:10;;;;;;;2.75;1.73;;;20.20;40.10;;;;;;5012333;28;20387;-73
2021/05/30 10:45:57;;;;;;;6.10;1.85;;;20.30;39.50;;;;;;4993875;28;20640;-73
2021/05/30 10:48:26;;;;;;;3.05;2.15;;;20.50;39.90;;;;;;5014395;28;20128;-74
2021/05/30 10:53:31;;;;;;;5.63;2.40;;;20.50;39.80;;;;;;5001254;28;20054;-72
2021/05/30 10:56:29;;;;;;;4.78;1.80;;;20.40;39.90;;;;;;5026609;28;20108;-74
2021/05/30 10:59:13;;;;;;;4.03;1.83;;;20.40;39.00;;;;;;4999117;28;20053;-74
2021/05/30 11:01:46;;;;;;;2.22;1.77;;;20.30;38.10;;;;;;4999837;28;20772;-74
2021/05/30 11:04:28;;;;;;;3.85;1.67;;;20.30;38.30;;;;;;4998611;28;20160;-74
2021/05/30 11:07:03;;;;;;;3.97;2.00;;;20.40;37.90;;;;;;5020430;28;20157;-74
2021/05/30 11:09:48;;;;;;;2.17;1.85;;;20.20;38.30;;;;;;5000461;28;20548;-75
2021/05/30 11:12:23;;;;;;;3.15;2.10;;;20.40;38.40;;;;;;4996006;28;20085;-75
2021/05/30 11:15:12;;;;;;;6.55;1.70;;;20.40;39.10;;;;;;4998434;28;20065;-74
2021/05/30 11:17:47;;;;;;;3.15;1.70;;;20.30;38.10;;;;;;5000398;28;20081;-74
2021/05/30 11:20:47;;;;;;;4.35;2.10;;;20.50;38.20;;;;;;4997550;28;20074;-76
2021/05/30 11:23:17;;;;;;;2.55;1.75;;;20.40;38.10;;;;;;5001100;28;20204;-76
2021/05/30 11:25:48;;;;;;;3.13;2.17;;;20.50;38.80;;;;;;5026365;28;20085;-77
2021/05/30 11:28:19;;;;;;;3.92;2.00;;;20.50;38.60;;;;;;5001295;28;20133;-78
2021/05/30 11:30:50;;;;;;;3.83;1.95;;;20.50;39.30;;;;;;5004397;28;20086;-74
2021/05/30 11:33:25;;;;;;;3.50;1.92;;;20.60;39.30;;;;;;5001743;28;20085;-76
2021/05/30 11:35:53;;;;;;;2.97;1.80;;;20.70;37.90;;;;;;5003178;28;20065;-76
2021/05/30 11:38:57;;;;;;;3.13;1.63;;;20.70;36.90;;;;;;5002631;28;20511;-76
2021/05/30 11:41:30;;;;;;;2.15;1.50;;;20.90;37.30;;;;;;5029419;28;20077;-76
2021/05/30 11:44:12;;;;;;;5.70;1.70;;;20.90;36.60;;;;;;4996386;28;20474;-77
2021/05/30 11:46:50;;;;;;;4.88;2.03;;;20.90;37.20;;;;;;5003688;28;20476;-76
2021/05/30 11:49:32;;;;;;;2.58;1.90;;;20.60;37.70;;;;;;5022847;28;20456;-76
2021/05/30 11:52:08;;;;;;;2.75;1.70;;;21.00;38.30;;;;;;5002769;28;20062;-76
2021/05/30 11:54:49;;;;;;;3.30;2.03;;;21.20;38.20;;;;;;5000057;28;20054;-76
2021/05/30 11:57:16;;;;;;;2.63;1.80;;;21.20;38.30;;;;;;5002735;28;20577;-76
2021/05/30 11:59:55;;;;;;;3.15;1.90;;;21.20;38.30;;;;;;5021279;28;20084;-75
2021/05/30 12:02:29;;;;;;;2.63;1.60;;;21.40;37.30;;;;;;5003660;28;20081;-78
2021/05/30 12:05:11;;;;;;;2.95;1.65;;;22.10;36.60;;;;;;5028010;28;20058;-75
2021/05/30 12:07:38;;;;;;;4.68;1.70;;;21.90;36.40;;;;;;5001852;28;20486;-76
2021/05/30 12:10:10;;;;;;;2.42;1.83;;;21.70;36.30;;;;;;5003540;28;20089;-77
2021/05/30 12:12:42;;;;;;;4.40;2.00;;;21.70;36.30;;;;;;5000126;28;20139;-77
2021/05/30 12:15:14;;;;;;;2.85;2.10;;;22.20;35.80;;;;;;5023341;28;20582;-77
2021/05/30 12:18:07;;;;;;;2.75;2.22;;;23.30;36.80;;;;;;4999935;28;20053;-76
2021/05/30 12:20:35;;;;;;;2.85;2.08;;;24.00;37.10;;;;;;5001084;28;20379;-75
2021/05/30 12:23:11;;;;;;;3.15;2.25;;;26.60;36.00;;;;;;5026708;28;20112;-77
2021/05/30 12:25:58;;;;;;;3.05;2.38;;;31.40;30.50;;;;;;5002556;28;20531;-78
2021/05/30 12:28:32;;;;;;;;;;;28.40;30.70;;;;;;5022686;28;20053;-77
2021/05/30 12:31:04;;;;;;;4.88;2.00;;;32.10;29.20;;;;;;5006531;28;19929;-76
2021/05/30 12:33:50;;;;;;;4.63;2.30;;;33.80;27.40;;;;;;5005161;28;20064;-75
2021/05/30 12:36:30;;;;;;;2.90;1.80;;;35.70;26.60;;;;;;4992717;28;20137;-75
2021/05/30 12:39:14;;;;;;;4.50;2.33;;;34.60;26.10;;;;;;5023984;28;20042;-75
2021/05/30 12:41:46;;;;;;;4.07;2.17;;;28.70;29.10;;;;;;5004386;28;20528;-75
2021/05/30 12:44:15;;;;;;;4.68;2.20;;;27.80;30.60;;;;;;5006326;28;20104;-75
2021/05/30 12:46:58;;;;;;;4.22;3.08;;;30.10;31.20;;;;;;5008322;28;20268;-75
2021/05/30 12:49:25;;;;;;;3.50;2.20;;;31.70;29.10;;;;;;5022692;28;20140;-76
2021/05/30 12:52:16;;;;;;;3.15;1.67;;;31.20;29.70;;;;;;5007505;28;20449;-76
2021/05/30 12:55:03;;;;;;;3.67;2.17;;;29.10;29.20;;;;;;4999718;28;20052;-76
2021/05/30 12:57:48;;;;;;;2.92;2.00;;;27.20;32.40;;;;;;5001895;28;20168;-75
2021/05/30 13:00:36;;;;;;;2.72;1.75;;;25.10;32.80;;;;;;5007655;28;20125;-76
2021/05/30 13:03:06;;;;;;;5.22;1.75;;;25.70;32.90;;;;;;5007473;28;20526;-75
2021/05/30 13:05:41;;;;;;;3.70;2.25;;;25.40;32.60;;;;;;5006438;28;20049;-74